createdAt,value
2022-11-15T00:01:15.000Z,0
2022-11-15T00:04:00.000Z,0
2022-11-15T00:06:45.000Z,0
2022-11-15T00:12:14.000Z,0
2022-11-15T00:14:59.000Z,0
2022-11-15T00:20:28.000Z,0
2022-11-15T00:23:13.000Z,0
2022-11-15T00:24:30.000Z,0
2022-11-15T00:25:57.000Z,0
2022-11-15T00:28:42.000Z,0
2022-11-15T00:31:26.000Z,0
2022-11-15T00:34:11.000Z,0
2022-11-15T00:36:56.000Z,0
2022-11-15T00:39:40.000Z,0
2022-11-15T00:42:25.000Z,0
2022-11-15T00:45:10.000Z,0
2022-11-15T00:47:54.000Z,0
2022-11-15T00:50:39.000Z,0
2022-11-15T00:51:57.000Z,0
2022-11-15T00:53:24.000Z,0
2022-11-15T00:56:08.000Z,0
2022-11-15T00:58:53.000Z,0
2022-11-15T01:01:38.000Z,0
2022-11-15T01:04:22.000Z,0
2022-11-15T01:07:07.000Z,0
2022-11-15T01:09:51.000Z,0
2022-11-15T01:12:36.000Z,0
2022-11-15T01:15:21.000Z,0
2022-11-15T01:18:05.000Z,0
2022-11-15T01:19:23.000Z,0
2022-11-15T01:20:50.000Z,0
2022-11-15T01:23:35.000Z,0
2022-11-15T01:26:19.000Z,0
2022-11-15T01:29:04.000Z,0
2022-11-15T01:31:49.000Z,0
2022-11-15T01:34:33.000Z,0
2022-11-15T01:37:18.000Z,0
2022-11-15T01:40:02.000Z,0
2022-11-15T01:42:47.000Z,0
2022-11-15T01:45:32.000Z,0
2022-11-15T01:46:50.000Z,0
2022-11-15T01:48:16.000Z,0
2022-11-15T01:51:01.000Z,0
2022-11-15T01:53:46.000Z,0
2022-11-15T01:56:30.000Z,0
2022-11-15T01:59:15.000Z,0
2022-11-15T02:02:00.000Z,0
2022-11-15T02:04:44.000Z,0
2022-11-15T02:07:29.000Z,0
2022-11-15T02:10:14.000Z,0
2022-11-15T02:12:58.000Z,0
2022-11-15T02:14:16.000Z,0
2022-11-15T02:15:43.000Z,0
2022-11-15T02:18:27.000Z,0
2022-11-15T02:21:12.000Z,0
2022-11-15T02:23:57.000Z,0
2022-11-15T02:26:41.000Z,0
2022-11-15T02:29:26.000Z,0
2022-11-15T02:32:11.000Z,0
2022-11-15T02:34:55.000Z,0
2022-11-15T02:37:40.000Z,0
2022-11-15T02:40:25.000Z,0
2022-11-15T02:41:43.000Z,0
2022-11-15T02:43:09.000Z,0
2022-11-15T02:45:54.000Z,0
2022-11-15T02:48:38.000Z,0
2022-11-15T02:51:23.000Z,0
2022-11-15T02:54:08.000Z,0
2022-11-15T02:56:52.000Z,0
2022-11-15T02:59:37.000Z,0
2022-11-15T03:02:22.000Z,0
2022-11-15T03:05:06.000Z,0
2022-11-15T03:07:51.000Z,0
2022-11-15T03:09:09.000Z,0
2022-11-15T03:10:36.000Z,0
2022-11-15T03:13:20.000Z,0
2022-11-15T03:16:05.000Z,0
2022-11-15T03:18:50.000Z,0
2022-11-15T03:21:34.000Z,0
2022-11-15T03:24:19.000Z,0
2022-11-15T03:27:03.000Z,0
2022-11-15T03:29:48.000Z,0
2022-11-15T03:32:33.000Z,0
2022-11-15T03:35:17.000Z,0
2022-11-15T03:36:35.000Z,0
2022-11-15T03:38:02.000Z,0
2022-11-15T03:40:47.000Z,0
2022-11-15T03:43:31.000Z,0
2022-11-15T03:46:16.000Z,0
2022-11-15T03:49:01.000Z,0
2022-11-15T03:51:45.000Z,0
2022-11-15T03:54:30.000Z,0
2022-11-15T03:57:14.000Z,0
2022-11-15T03:59:59.000Z,0
2022-11-15T04:02:44.000Z,0
2022-11-15T04:04:02.000Z,0
2022-11-15T04:05:28.000Z,0
2022-11-15T04:08:13.000Z,0
2022-11-15T04:10:58.000Z,0
2022-11-15T04:13:42.000Z,0
2022-11-15T04:16:27.000Z,0
2022-11-15T04:19:28.000Z,0
2022-11-15T04:22:13.000Z,0
2022-11-15T04:24:57.000Z,0
2022-11-15T04:27:42.000Z,0
2022-11-15T04:30:27.000Z,0
2022-11-15T04:31:44.000Z,0
2022-11-15T04:33:11.000Z,0
2022-11-15T04:35:56.000Z,0
2022-11-15T04:38:40.000Z,0
2022-11-15T04:41:25.000Z,0
2022-11-15T04:44:10.000Z,0
2022-11-15T04:46:54.000Z,0
2022-11-15T04:49:39.000Z,0
2022-11-15T04:52:24.000Z,0
2022-11-15T04:55:08.000Z,0
2022-11-15T04:57:53.000Z,0
2022-11-15T04:59:11.000Z,0
2022-11-15T05:00:38.000Z,0
2022-11-15T05:03:22.000Z,0
2022-11-15T05:06:07.000Z,0
2022-11-15T05:08:52.000Z,0
2022-11-15T05:11:36.000Z,0
2022-11-15T05:14:21.000Z,0
2022-11-15T05:17:05.000Z,0
2022-11-15T05:19:50.000Z,0
2022-11-15T05:22:35.000Z,0
2022-11-15T05:25:19.000Z,0
2022-11-15T05:26:37.000Z,0
2022-11-15T05:28:04.000Z,0
2022-11-15T05:30:49.000Z,0
2022-11-15T05:33:33.000Z,0
2022-11-15T05:36:18.000Z,0
2022-11-15T05:39:03.000Z,0
2022-11-15T05:41:47.000Z,0
2022-11-15T05:44:32.000Z,0
2022-11-15T05:47:17.000Z,0
2022-11-15T05:50:01.000Z,0
2022-11-15T05:52:46.000Z,0
2022-11-15T05:54:04.000Z,0
2022-11-15T05:55:30.000Z,0
2022-11-15T05:58:15.000Z,0
2022-11-15T06:01:00.000Z,0
2022-11-15T06:06:29.000Z,0
2022-11-15T06:09:14.000Z,0
2022-11-15T06:11:58.000Z,0
2022-11-15T06:14:43.000Z,0
2022-11-15T06:17:28.000Z,0
2022-11-15T06:20:12.000Z,0
2022-11-15T06:21:30.000Z,0
2022-11-15T06:25:41.000Z,0
2022-11-15T06:28:26.000Z,0
2022-11-15T06:31:11.000Z,0
2022-11-15T06:33:55.000Z,0
2022-11-15T06:36:40.000Z,0
2022-11-15T06:39:25.000Z,0
2022-11-15T06:42:09.000Z,0
2022-11-15T06:44:54.000Z,0
2022-11-15T06:47:39.000Z,0
2022-11-15T06:48:56.000Z,0
2022-11-15T06:50:23.000Z,0
2022-11-15T06:53:08.000Z,0
2022-11-15T06:55:53.000Z,0
2022-11-15T06:58:37.000Z,0
2022-11-15T07:01:22.000Z,5
2022-11-15T07:04:06.000Z,5
2022-11-15T07:06:51.000Z,5
2022-11-15T07:09:36.000Z,5
2022-11-15T07:12:20.000Z,5
2022-11-15T07:15:05.000Z,5
2022-11-15T07:16:23.000Z,5
2022-11-15T07:17:50.000Z,5
2022-11-15T07:20:34.000Z,5
2022-11-15T07:23:19.000Z,5
2022-11-15T07:26:04.000Z,5
2022-11-15T07:28:48.000Z,11
2022-11-15T07:31:33.000Z,11
2022-11-15T07:34:17.000Z,16
2022-11-15T07:37:02.000Z,22
2022-11-15T07:39:47.000Z,16
2022-11-15T07:42:31.000Z,16
2022-11-15T07:43:49.000Z,16
2022-11-15T07:45:16.000Z,16
2022-11-15T07:48:01.000Z,22
2022-11-15T07:50:45.000Z,22
2022-11-15T07:53:30.000Z,22
2022-11-15T07:56:15.000Z,16
2022-11-15T07:58:59.000Z,16
2022-11-15T08:01:44.000Z,16
2022-11-15T08:04:29.000Z,22
2022-11-15T08:07:13.000Z,16
2022-11-15T08:09:58.000Z,16
2022-11-15T08:11:16.000Z,16
2022-11-15T08:12:42.000Z,16
2022-11-15T08:15:27.000Z,16
2022-11-15T08:18:12.000Z,22
2022-11-15T08:20:56.000Z,33
2022-11-15T08:23:41.000Z,39
2022-11-15T08:26:26.000Z,50
2022-11-15T08:29:10.000Z,50
2022-11-15T08:31:55.000Z,61
2022-11-15T08:34:40.000Z,67
2022-11-15T08:37:24.000Z,95
2022-11-15T08:38:42.000Z,112
2022-11-15T08:40:09.000Z,129
2022-11-15T08:42:53.000Z,146
2022-11-15T08:45:38.000Z,331
2022-11-15T08:48:23.000Z,270
2022-11-15T08:51:07.000Z,433
2022-11-15T08:53:52.000Z,731
2022-11-15T08:56:37.000Z,410
2022-11-15T08:59:21.000Z,348
2022-11-15T09:02:06.000Z,528
2022-11-15T09:06:09.000Z,1147
2022-11-15T09:10:20.000Z,1085
2022-11-15T09:13:05.046Z,1051
2022-11-15T09:15:49.000Z,956
2022-11-15T09:18:34.000Z,658
2022-11-15T09:21:18.000Z,815
2022-11-15T09:26:48.000Z,894
2022-11-15T09:29:32.000Z,433
2022-11-15T09:33:35.000Z,495
2022-11-15T09:35:02.000Z,489
2022-11-15T09:38:03.000Z,438
2022-11-15T09:40:47.000Z,579
2022-11-15T09:43:32.000Z,658
2022-11-15T09:46:17.000Z,579
2022-11-15T09:49:01.000Z,551
2022-11-15T09:51:46.000Z,427
2022-11-15T09:54:31.000Z,399
2022-11-15T09:57:15.000Z,478
2022-11-15T10:00:00.000Z,624
2022-11-15T10:01:18.000Z,427
2022-11-15T10:02:44.000Z,388
2022-11-15T10:08:30.000Z,438
2022-11-15T10:11:15.000Z,500
2022-11-15T10:13:59.000Z,607
2022-11-15T10:16:44.000Z,720
2022-11-15T10:19:29.000Z,753
2022-11-15T10:24:58.000Z,945
2022-11-15T10:27:43.000Z,967
2022-11-15T10:30:27.000Z,511
2022-11-15T10:33:12.000Z,703
2022-11-15T10:35:57.000Z,838
2022-11-15T10:38:58.000Z,866
2022-11-15T10:41:42.000Z,1080
2022-11-15T10:44:27.000Z,1299
2022-11-15T10:47:11.000Z,1366
2022-11-15T10:49:56.000Z,506
2022-11-15T10:52:41.000Z,748
2022-11-15T10:55:25.000Z,787
2022-11-15T10:58:10.000Z,315
2022-11-15T10:59:28.000Z,725
2022-11-15T11:00:55.000Z,354
2022-11-15T11:03:39.000Z,320
2022-11-15T11:06:24.000Z,399
2022-11-15T11:09:09.000Z,624
2022-11-15T11:12:10.000Z,551
2022-11-15T11:17:39.000Z,551
2022-11-15T11:20:24.000Z,736
2022-11-15T11:23:08.000Z,292
2022-11-15T11:25:53.000Z,298
2022-11-15T11:27:11.000Z,241
2022-11-15T11:28:37.000Z,236
2022-11-15T11:31:22.000Z,241
2022-11-15T11:34:07.000Z,225
2022-11-15T11:36:51.000Z,371
2022-11-15T11:39:36.000Z,213
2022-11-15T11:42:21.000Z,219
2022-11-15T11:45:05.000Z,208
2022-11-15T11:47:50.000Z,202
2022-11-15T11:50:35.000Z,230
2022-11-15T11:53:19.000Z,213
2022-11-15T11:54:37.000Z,253
2022-11-15T11:56:04.000Z,331
2022-11-15T11:58:48.000Z,202
2022-11-15T12:01:33.000Z,219
2022-11-15T12:04:18.000Z,202
2022-11-15T12:07:02.000Z,208
2022-11-15T12:09:47.000Z,286
2022-11-15T12:12:32.000Z,253
2022-11-15T12:15:16.000Z,191
2022-11-15T12:18:01.000Z,376
2022-11-15T12:20:46.000Z,416
2022-11-15T12:22:03.000Z,202
2022-11-15T12:23:30.000Z,275
2022-11-15T12:26:15.000Z,208
2022-11-15T12:29:00.000Z,551
2022-11-15T12:31:44.000Z,180
2022-11-15T12:34:29.000Z,315
2022-11-15T12:37:13.000Z,393
2022-11-15T12:39:58.000Z,315
2022-11-15T12:42:59.000Z,174
2022-11-15T12:45:44.000Z,151
2022-11-15T12:48:28.000Z,399
2022-11-15T12:49:46.000Z,146
2022-11-15T12:51:13.000Z,135
2022-11-15T12:53:58.000Z,123
2022-11-15T12:56:42.000Z,123
2022-11-15T12:59:27.000Z,157
2022-11-15T13:02:12.000Z,123
2022-11-15T13:07:41.000Z,135
2022-11-15T13:10:26.000Z,135
2022-11-15T13:13:10.000Z,135
2022-11-15T13:15:55.000Z,140
2022-11-15T13:17:13.000Z,140
2022-11-15T13:18:39.000Z,135
2022-11-15T13:21:24.000Z,135
2022-11-15T13:24:09.000Z,135
2022-11-15T13:26:53.000Z,129
2022-11-15T13:29:38.000Z,135
2022-11-15T13:32:23.000Z,123
2022-11-15T13:35:07.000Z,129
2022-11-15T13:37:52.000Z,135
2022-11-15T13:40:37.000Z,140
2022-11-15T13:43:21.000Z,135
2022-11-15T13:44:39.000Z,129
2022-11-15T13:46:06.000Z,129
2022-11-15T13:48:50.000Z,112
2022-11-15T13:51:35.000Z,112
2022-11-15T13:54:20.000Z,112
2022-11-15T13:57:04.000Z,106
2022-11-15T13:59:49.000Z,123
2022-11-15T14:02:34.000Z,101
2022-11-15T14:05:18.000Z,95
2022-11-15T14:08:03.000Z,90
2022-11-15T14:10:48.000Z,84
2022-11-15T14:12:05.000Z,78
2022-11-15T14:13:32.000Z,78
2022-11-15T14:16:17.000Z,78
2022-11-15T14:19:02.000Z,67
2022-11-15T14:21:46.000Z,67
2022-11-15T14:24:31.000Z,67
2022-11-15T14:27:15.000Z,67
2022-11-15T14:30:00.000Z,56
2022-11-15T14:32:45.000Z,50
2022-11-15T14:35:29.000Z,50
2022-11-15T14:38:14.000Z,45
2022-11-15T14:39:32.000Z,50
2022-11-15T14:40:59.000Z,50
2022-11-15T14:46:28.000Z,39
2022-11-15T14:49:13.000Z,39
2022-11-15T14:51:57.000Z,39
2022-11-15T14:54:42.000Z,39
2022-11-15T14:57:26.000Z,33
2022-11-15T15:00:11.000Z,28
2022-11-15T15:02:56.000Z,28
2022-11-15T15:05:40.000Z,22
2022-11-15T15:06:58.000Z,22
2022-11-15T15:08:25.000Z,22
2022-11-15T15:11:10.000Z,16
2022-11-15T15:13:54.000Z,16
2022-11-15T15:16:39.000Z,16
2022-11-15T15:19:24.000Z,11
2022-11-15T15:22:08.000Z,11
2022-11-15T15:24:53.000Z,11
2022-11-15T15:27:38.000Z,5
2022-11-15T15:30:22.000Z,5
2022-11-15T15:33:07.000Z,5
2022-11-15T15:34:25.000Z,5
2022-11-15T15:35:51.000Z,0
2022-11-15T15:38:36.000Z,0
2022-11-15T15:41:21.000Z,0
2022-11-15T15:44:05.000Z,0
2022-11-15T15:46:50.000Z,0
2022-11-15T15:49:35.000Z,0
2022-11-15T15:52:19.000Z,0
2022-11-15T15:55:04.000Z,0
2022-11-15T15:57:49.000Z,0
2022-11-15T16:00:33.000Z,0
2022-11-15T16:01:51.000Z,0
2022-11-15T16:03:18.000Z,0
2022-11-15T16:06:03.000Z,0
2022-11-15T16:08:47.000Z,0
2022-11-15T16:11:32.000Z,0
2022-11-15T16:14:16.000Z,0
2022-11-15T16:17:01.000Z,0
2022-11-15T16:19:46.000Z,0
2022-11-15T16:22:30.000Z,0
2022-11-15T16:25:15.000Z,0
2022-11-15T16:28:00.000Z,0
2022-11-15T16:29:17.000Z,0
2022-11-15T16:30:44.000Z,0
2022-11-15T16:33:29.000Z,0
2022-11-15T16:36:14.000Z,0
2022-11-15T16:38:58.000Z,0
2022-11-15T16:41:43.000Z,0
2022-11-15T16:44:27.000Z,0
2022-11-15T16:47:12.000Z,0
2022-11-15T16:49:57.000Z,0
2022-11-15T16:52:41.000Z,0
2022-11-15T16:55:26.000Z,0
2022-11-15T16:56:44.000Z,0
2022-11-15T16:58:11.000Z,0
2022-11-15T17:00:55.000Z,0
2022-11-15T17:03:40.000Z,0
2022-11-15T17:06:25.000Z,0
2022-11-15T17:09:09.000Z,0
2022-11-15T17:11:54.000Z,0
2022-11-15T17:14:39.000Z,0
2022-11-15T17:17:23.000Z,0
2022-11-15T17:20:08.000Z,0
2022-11-15T17:22:52.000Z,0
2022-11-15T17:24:10.000Z,0
2022-11-15T17:25:37.000Z,0
2022-11-15T17:28:22.000Z,0
2022-11-15T17:31:06.000Z,0
2022-11-15T17:33:51.000Z,0
2022-11-15T17:36:36.000Z,0
2022-11-15T17:39:20.000Z,0
2022-11-15T17:42:05.000Z,0
2022-11-15T17:44:50.000Z,0
2022-11-15T17:47:34.000Z,0
2022-11-15T17:50:19.000Z,0
2022-11-15T17:51:37.000Z,0
2022-11-15T17:53:03.000Z,0
2022-11-15T17:55:48.000Z,0
2022-11-15T17:58:33.000Z,0
2022-11-15T18:01:17.000Z,0
2022-11-15T18:04:02.000Z,0
2022-11-15T18:06:47.000Z,0
2022-11-15T18:09:31.000Z,0
2022-11-15T18:12:16.000Z,0
2022-11-15T18:15:01.000Z,0
2022-11-15T18:17:45.000Z,0
2022-11-15T18:19:03.000Z,0
2022-11-15T18:20:30.000Z,0
2022-11-15T18:23:15.000Z,0
2022-11-15T18:25:59.000Z,0
2022-11-15T18:28:44.000Z,0
2022-11-15T18:31:28.000Z,0
2022-11-15T18:34:13.000Z,0
2022-11-15T18:36:58.000Z,0
2022-11-15T18:39:42.000Z,0
2022-11-15T18:42:27.000Z,0
2022-11-15T18:45:12.000Z,0
2022-11-15T18:46:30.000Z,0
2022-11-15T18:47:56.000Z,0
2022-11-15T18:50:41.000Z,0
2022-11-15T18:53:26.000Z,0
2022-11-15T18:56:10.000Z,0
2022-11-15T18:58:55.000Z,0
2022-11-15T19:01:40.000Z,0
2022-11-15T19:04:24.000Z,0
2022-11-15T19:07:09.000Z,0
2022-11-15T19:09:53.000Z,0
2022-11-15T19:12:38.000Z,0
2022-11-15T19:13:56.000Z,0
2022-11-15T19:15:23.000Z,0
2022-11-15T19:18:07.000Z,0
2022-11-15T19:20:52.000Z,0
2022-11-15T19:23:37.000Z,0
2022-11-15T19:26:21.000Z,0
2022-11-15T19:29:06.000Z,0
2022-11-15T19:31:51.000Z,0
2022-11-15T19:34:35.000Z,0
2022-11-15T19:37:20.000Z,0
2022-11-15T19:40:04.000Z,0
2022-11-15T19:41:22.000Z,0
2022-11-15T19:42:49.000Z,0
2022-11-15T19:45:34.000Z,0
2022-11-15T19:48:18.000Z,0
2022-11-15T19:51:03.000Z,0
2022-11-15T19:53:48.000Z,0
2022-11-15T19:56:32.000Z,0
2022-11-15T19:59:17.000Z,0
2022-11-15T20:02:02.000Z,0
2022-11-15T20:04:46.000Z,0
2022-11-15T20:07:31.000Z,0
2022-11-15T20:08:49.000Z,0
2022-11-15T20:10:16.000Z,0
2022-11-15T20:13:00.000Z,0
2022-11-15T20:15:45.000Z,0
2022-11-15T20:18:29.000Z,0
2022-11-15T20:21:14.000Z,0
2022-11-15T20:23:59.000Z,0
2022-11-15T20:26:43.000Z,0
2022-11-15T20:29:28.000Z,0
2022-11-15T20:32:13.000Z,0
2022-11-15T20:36:15.000Z,0
2022-11-15T20:37:42.000Z,0
2022-11-15T20:40:27.000Z,0
2022-11-15T20:43:11.000Z,0
2022-11-15T20:45:56.000Z,0
2022-11-15T20:48:40.000Z,0
2022-11-15T20:51:25.000Z,0
2022-11-15T20:54:10.000Z,0
2022-11-15T20:56:54.000Z,0
2022-11-15T20:59:39.000Z,0
2022-11-15T21:02:24.000Z,0
2022-11-15T21:03:42.000Z,0
2022-11-15T21:05:25.000Z,0
2022-11-15T21:08:09.000Z,0
2022-11-15T21:10:54.000Z,0
2022-11-15T21:13:39.000Z,0
2022-11-15T21:16:23.000Z,0
2022-11-15T21:19:08.000Z,0
2022-11-15T21:21:53.000Z,0
2022-11-15T21:24:37.000Z,0
2022-11-15T21:27:22.000Z,0
2022-11-15T21:30:06.000Z,0
2022-11-15T21:31:24.000Z,0
2022-11-15T21:32:51.000Z,0
2022-11-15T21:35:36.000Z,0
2022-11-15T21:38:20.000Z,0
2022-11-15T21:41:05.000Z,0
2022-11-15T21:43:50.000Z,0
2022-11-15T21:46:34.000Z,0
2022-11-15T21:49:19.000Z,0
2022-11-15T21:52:04.000Z,0
2022-11-15T21:54:48.000Z,0
2022-11-15T21:57:33.000Z,0
2022-11-15T21:58:51.000Z,0
2022-11-15T22:00:18.000Z,0
2022-11-15T22:03:02.000Z,0
2022-11-15T22:05:47.000Z,0
2022-11-15T22:08:31.000Z,0
2022-11-15T22:11:16.000Z,0
2022-11-15T22:14:01.000Z,0
2022-11-15T22:16:45.000Z,0
2022-11-15T22:19:30.000Z,0
2022-11-15T22:22:15.000Z,0
2022-11-15T22:24:59.000Z,0
2022-11-15T22:26:17.000Z,0
2022-11-15T22:27:44.000Z,0
2022-11-15T22:33:13.000Z,0
2022-11-15T22:35:58.000Z,0
2022-11-15T22:38:42.000Z,0
2022-11-15T22:41:27.000Z,0
2022-11-15T22:44:12.000Z,0
2022-11-15T22:46:56.000Z,0
2022-11-15T22:49:41.000Z,0
2022-11-15T22:52:26.000Z,0
2022-11-15T22:53:43.000Z,0
2022-11-15T22:55:10.000Z,0
2022-11-15T22:57:55.000Z,0
2022-11-15T23:00:40.000Z,0
2022-11-15T23:03:24.000Z,0
2022-11-15T23:06:09.000Z,0
2022-11-15T23:08:54.000Z,0
2022-11-15T23:11:38.000Z,0
2022-11-15T23:14:23.000Z,0
2022-11-15T23:17:07.000Z,0
2022-11-15T23:19:52.000Z,0
2022-11-15T23:21:10.000Z,0
2022-11-15T23:22:37.000Z,0
2022-11-15T23:25:21.000Z,0
2022-11-15T23:28:06.000Z,0
2022-11-15T23:30:51.000Z,0
2022-11-15T23:33:35.000Z,0
2022-11-15T23:36:20.000Z,0
2022-11-15T23:39:05.000Z,0
2022-11-15T23:41:49.000Z,0
2022-11-15T23:44:34.000Z,0
2022-11-15T23:47:18.000Z,0
2022-11-15T23:48:36.000Z,0
2022-11-15T23:50:03.000Z,0
2022-11-15T23:52:48.000Z,0
2022-11-15T23:55:32.000Z,0
2022-11-15T23:58:17.000Z,0
